Archiv-/Tagesdaten

--Timestamp---	Temp	Chill	HIndex	Humid	Dewpt	Wind	HiWind	WindDir	Rain	Barom	        Solar	ET	UV
--------------	----	-----	------	-----	-----	----	------	-------	----	-----	        -----	--	--
20090401 00:05	4.9	3.0	4.9	82	2.1	8	18	112	0.00	1017.139	0	0.000	0
20090401 00:10	4.9	3.5	4.9	82	2.1	6	16	112	0.00	1017.071	0	0.000	0
20090401 00:15	4.9	3.5	4.9	82	2.1	6	11	135	0.00	1017.071	0	0.000	0
20090401 00:20	5.0	3.6	5.0	82	2.2	6	11	112	0.00	1017.139	0	0.000	0
20090401 00:25	5.0	5.0	5.0	82	2.2	5	10	135	0.00	1017.139	0	0.000	0
20090401 00:30	5.1	3.7	5.1	82	2.2	6	11	112	0.00	1017.071	0	0.000	0
20090401 00:35	5.1	5.1	5.1	82	2.2	5	11	112	0.00	1017.003	0	0.000	0
20090401 00:40	5.1	3.7	5.1	82	2.2	6	14	90	0.00	1016.935	0	0.000	0
20090401 00:45	5.1	5.1	5.1	82	2.2	5	10	112	0.00	1016.935	0	0.000	0
20090401 00:50	5.1	3.7	5.1	82	2.2	6	18	90	0.00	1016.868	0	0.000	0
20090401 00:55	5.0	3.6	5.0	82	2.2	6	16	90	0.00	1016.800	0	0.000	0
20090401 01:00	5.0	3.6	5.0	82	2.2	6	14	112	0.00	1016.766	0	0.020	0
20090401 01:05	5.0	5.0	5.0	82	2.2	5	11	90	0.00	1016.664	0	0.000	0
20090401 01:10	4.9	3.5	4.9	82	2.1	6	13	90	0.00	1016.529	0	0.000	0
20090401 01:15	4.9	3.5	4.9	82	2.1	6	11	112	0.00	1016.427	0	0.000	0
20090401 01:20	4.9	4.9	4.9	82	2.1	5	14	112	0.00	1016.427	0	0.000	0
20090401 01:25	4.9	3.0	4.9	82	2.1	8	19	112	0.00	1016.461	0	0.000	0
20090401 01:30	4.8	3.4	4.8	82	2.0	6	18	112	0.00	1016.427	0	0.000	0
20090401 01:35	4.8	3.4	4.8	82	2.0	6	14	112	0.00	1016.394	0	0.000	0
20090401 01:40	4.8	3.4	4.8	82	2.0	6	16	135	0.00	1016.394	0	0.000	0
20090401 01:45	4.8	3.4	4.8	83	2.2	6	10	112	0.00	1016.292	0	0.000	0
20090401 01:50	4.8	3.4	4.8	83	2.2	6	16	90	0.00	1016.224	0	0.000	0
20090401 01:55	4.8	4.8	4.8	83	2.1	5	14	112	0.00	1016.123	0	0.000	0
20090401 02:00	4.8	3.3	4.8	83	2.1	6	14	112	0.00	1016.190	0	0.020	0
20090401 02:05	4.7	4.7	4.7	83	2.1	5	11	90	0.00	1015.953	0	0.000	0
20090401 02:10	4.7	4.7	4.7	83	2.1	5	10	90	0.00	1015.987	0	0.000	0
20090401 02:15	4.7	4.7	4.7	84	2.3	5	10	90	0.00	1015.886	0	0.000	0
20090401 02:20	4.7	4.7	4.7	84	2.2	3	8	112	0.00	1015.953	0	0.000	0
20090401 02:25	4.7	4.7	4.7	84	2.2	5	8	90	0.00	1015.886	0	0.000	0
20090401 02:30	4.7	4.7	4.7	84	2.2	3	8	90	0.00	1015.886	0	0.000	0
20090401 02:35	4.7	4.7	4.7	84	2.2	3	11	112	0.00	1015.886	0	0.000	0
20090401 02:40	4.6	4.6	4.6	84	2.1	3	8	90	0.00	1015.818	0	0.000	0
20090401 02:45	4.6	4.6	4.6	84	2.1	5	10	90	0.00	1015.716	0	0.000	0
20090401 02:50	4.6	4.6	4.6	84	2.1	3	6	67	0.00	1015.649	0	0.000	0
20090401 02:55	4.6	4.6	4.6	84	2.1	5	11	90	0.00	1015.615	0	0.000	0
20090401 03:00	4.6	4.6	4.6	85	2.3	3	10	67	0.00	1015.445	0	0.020	0
20090401 03:05	4.6	4.6	4.6	85	2.3	5	10	90	0.00	1015.344	0	0.000	0
20090401 03:10	4.5	4.5	4.5	85	2.2	3	10	90	0.00	1015.276	0	0.000	0
20090401 03:15	4.5	4.5	4.5	85	2.2	3	10	90	0.00	1015.276	0	0.000	0
20090401 03:20	4.5	4.5	4.5	85	2.2	5	10	67	0.00	1015.242	0	0.000	0
20090401 03:25	4.5	4.5	4.5	86	2.4	3	6	67	0.00	1015.174	0	0.000	0
20090401 03:30	4.5	4.5	4.5	86	2.4	3	6	112	0.00	1015.107	0	0.000	0
20090401 03:35	4.5	4.5	4.5	86	2.4	5	10	67	0.00	1015.107	0	0.000	0
20090401 03:40	4.5	4.5	4.5	86	2.4	3	8	90	0.00	1015.073	0	0.000	0
20090401 03:45	4.5	4.5	4.5	86	2.4	3	10	90	0.00	1015.073	0	0.000	0
20090401 03:50	4.4	4.4	4.4	87	2.5	3	11	90	0.00	1015.073	0	0.000	0
20090401 03:55	4.4	4.4	4.4	87	2.5	5	11	135	0.00	1015.039	0	0.000	0
20090401 04:00	4.5	3.0	4.5	86	2.4	6	18	112	0.00	1014.971	0	0.000	0
20090401 04:05	4.5	4.5	4.5	87	2.5	3	10	90	0.00	1014.937	0	0.000	0
20090401 04:10	4.5	4.5	4.5	87	2.5	3	10	90	0.00	1014.802	0	0.000	0
20090401 04:15	4.4	3.0	4.4	87	2.5	6	14	90	0.00	1014.802	0	0.000	0
20090401 04:20	4.4	4.4	4.4	87	2.5	5	8	90	0.00	1014.768	0	0.000	0
20090401 04:25	4.4	4.4	4.4	87	2.5	5	11	90	0.00	1014.768	0	0.000	0
20090401 04:30	4.4	4.4	4.4	87	2.4	5	11	135	0.00	1014.768	0	0.000	0
20090401 04:35	4.3	4.3	4.3	87	2.4	5	16	112	0.00	1014.666	0	0.000	0
20090401 04:40	4.3	4.3	4.3	87	2.4	5	14	67	0.00	1014.666	0	0.000	0
20090401 04:45	4.3	2.8	4.3	87	2.4	6	19	135	0.00	1014.633	0	0.000	0
20090401 04:50	4.3	2.8	4.3	87	2.4	6	16	90	0.00	1014.599	0	0.000	0
20090401 04:55	4.3	2.8	4.3	87	2.4	6	14	112	0.00	1014.666	0	0.000	0
20090401 05:00	4.3	2.8	4.3	88	2.5	6	16	112	0.00	1014.565	0	0.000	0
20090401 05:05	4.3	4.3	4.3	88	2.5	3	8	135	0.00	1014.565	0	0.000	0
20090401 05:10	4.3	2.8	4.3	88	2.5	6	11	135	0.00	1014.531	0	0.000	0
20090401 05:15	4.3	2.8	4.3	88	2.5	6	18	112	0.00	1014.497	0	0.000	0
20090401 05:20	4.3	2.4	4.3	88	2.5	8	18	112	0.00	1014.497	0	0.000	0
20090401 05:25	4.3	2.0	4.3	88	2.5	10	23	112	0.00	1014.396	0	0.000	0
20090401 05:30	4.3	2.8	4.3	88	2.5	6	18	112	0.00	1014.429	0	0.000	0
20090401 05:35	4.3	2.4	4.3	88	2.5	8	19	135	0.00	1014.463	0	0.000	0
20090401 05:40	4.3	2.8	4.3	88	2.5	6	18	112	0.00	1014.429	0	0.000	0
20090401 05:45	4.3	2.8	4.3	88	2.5	6	14	112	0.00	1014.463	0	0.000	0
20090401 05:50	4.3	2.8	4.3	88	2.5	6	14	112	0.00	1014.429	0	0.000	0
20090401 05:55	4.3	2.8	4.3	88	2.5	6	14	135	0.00	1014.429	0	0.000	0
20090401 06:00	4.3	2.4	4.3	89	2.7	8	18	112	0.00	1014.362	0	0.000	0
20090401 06:05	4.3	2.8	4.3	89	2.7	6	14	112	0.00	1014.362	0	0.000	0
20090401 06:10	4.3	2.8	4.3	89	2.7	6	18	135	0.00	1014.294	0	0.000	0
20090401 06:15	4.3	2.8	4.3	89	2.7	6	18	135	0.00	1014.192	0	0.000	0
20090401 06:20	4.3	4.3	4.3	89	2.7	3	10	135	0.00	1014.159	0	0.000	0
20090401 06:25	4.3	4.3	4.3	89	2.7	2	5	135	0.00	1014.192	0	0.000	0
20090401 06:30	4.3	4.3	4.3	89	2.7	3	10	135	0.00	1014.125	0	0.000	0
20090401 06:35	4.4	4.4	4.4	89	2.7	3	8	135	0.00	1014.125	0	0.000	0
20090401 06:40	4.4	4.4	4.4	89	2.7	5	8	135	0.00	1014.159	0	0.000	0
20090401 06:45	4.4	4.4	4.4	89	2.7	5	11	135	0.00	1014.226	0	0.000	0
20090401 06:50	4.4	4.4	4.4	89	2.7	3	8	157	0.00	1014.192	0	0.000	0
20090401 06:55	4.4	4.4	4.4	89	2.8	2	6	135	0.00	1014.192	0	0.000	0
20090401 07:00	4.4	4.4	4.4	89	2.8	2	5	112	0.00	1014.192	0	0.000	0
20090401 07:05	4.4	4.4	4.4	90	2.9	3	6	90	0.00	1014.429	0	0.000	0
20090401 07:10	4.4	4.4	4.4	89	2.8	3	8	135	0.00	1014.429	0	0.000	0
20090401 07:15	4.4	4.4	4.4	89	2.8	2	6	157	0.00	1014.396	0	0.000	0
20090401 07:20	4.4	4.4	4.4	89	2.8	3	6	90	0.00	1014.362	0	0.000	0
20090401 07:25	4.4	4.4	4.4	89	2.8	3	14	135	0.00	1014.328	0	0.000	0
20090401 07:30	4.4	4.4	4.4	89	2.8	5	16	135	0.00	1014.294	0	0.000	0
20090401 07:35	4.5	4.5	4.5	89	2.8	5	11	135	0.00	1014.328	0	0.000	0
20090401 07:40	4.5	4.5	4.5	89	2.8	5	10	135	0.00	1014.294	0	0.000	0
20090401 07:45	4.5	4.5	4.5	90	3.0	5	10	135	0.00	1014.362	6	0.000	0
20090401 07:50	4.5	4.5	4.5	90	3.0	2	6	135	0.00	1014.429	13	0.000	0
20090401 07:55	4.6	4.6	4.6	90	3.1	5	10	135	0.00	1014.497	15	0.000	0
20090401 08:00	4.6	4.6	4.6	90	3.1	5	10	135	0.00	1014.531	16	0.000	0
20090401 08:05	4.6	3.1	4.6	90	3.1	6	10	135	0.00	1014.531	18	0.000	0
20090401 08:10	4.6	4.6	4.6	90	3.1	5	11	135	0.00	1014.497	21	0.000	0
20090401 08:15	4.7	4.7	4.7	90	3.2	3	6	135	0.00	1014.531	20	0.000	0
20090401 08:20	4.7	4.7	4.7	90	3.2	3	10	135	0.00	1014.497	18	0.000	0
20090401 08:25	4.7	4.7	4.7	89	3.0	5	10	112	0.00	1014.497	22	0.000	0
20090401 08:30	4.7	4.7	4.7	90	3.2	3	10	135	0.00	1014.429	31	0.000	0
20090401 08:35	4.7	4.7	4.7	89	3.1	5	11	135	0.00	1014.362	42	0.000	0
20090401 08:40	4.8	4.8	4.8	89	3.1	5	11	135	0.00	1014.362	44	0.000	0
20090401 08:45	4.8	4.8	4.8	89	3.1	5	11	135	0.00	1014.362	49	0.000	0
20090401 08:50	4.8	3.4	4.8	90	3.3	6	11	135	0.00	1014.362	49	0.000	0
20090401 08:55	4.8	4.8	4.8	89	3.2	5	16	112	0.00	1014.429	47	0.000	0
20090401 09:00	4.8	3.4	4.8	89	3.2	6	11	112	0.00	1014.463	47	0.020	0
20090401 09:05	4.9	4.9	4.9	89	3.2	5	10	112	0.00	1014.599	52	0.000	0
20090401 09:10	4.9	4.9	4.9	89	3.3	5	11	112	0.00	1014.599	50	0.000	0
20090401 09:15	5.0	5.0	5.0	89	3.3	2	5	135	0.00	1014.700	50	0.000	0
20090401 09:20	5.0	5.0	5.0	89	3.3	3	10	135	0.00	1014.700	55	0.000	0
20090401 09:25	5.0	3.6	5.0	89	3.3	6	14	135	0.00	1014.633	66	0.000	0
20090401 09:30	5.1	3.2	5.1	89	3.4	8	19	112	0.00	1014.565	71	0.000	0
20090401 09:35	5.1	2.8	5.1	89	3.4	10	18	112	0.00	1014.565	83	0.000	0
20090401 09:40	5.1	3.2	5.1	89	3.4	8	18	135	0.00	1014.599	90	0.000	0
20090401 09:45	5.1	3.7	5.1	89	3.4	6	16	135	0.00	1014.633	97	0.000	1
20090401 09:50	5.2	5.2	5.2	88	3.3	5	11	90	0.00	1014.633	100	0.000	1
20090401 09:55	5.3	3.9	5.3	88	3.5	6	16	112	0.00	1014.666	107	0.000	1
20090401 10:00	5.3	5.3	5.3	88	3.5	5	14	135	0.00	1014.599	99	0.020	1
20090401 10:05	5.3	4.0	5.3	88	3.5	6	14	112	0.00	1014.700	102	0.000	1
20090401 10:10	5.3	4.0	5.3	88	3.5	6	10	112	0.00	1014.768	86	0.000	1
20090401 10:15	5.4	3.6	5.4	88	3.6	8	16	112	0.00	1014.836	72	0.000	1
20090401 10:20	5.4	5.4	5.4	88	3.6	5	11	112	0.00	1014.904	89	0.000	1
20090401 10:25	5.4	5.4	5.4	88	3.6	3	8	135	0.00	1014.870	101	0.000	1
20090401 10:30	5.5	4.2	5.5	88	3.7	6	16	112	0.00	1014.870	133	0.000	1
20090401 10:35	5.6	4.2	5.6	88	3.7	6	16	112	0.00	1015.005	115	0.000	1
20090401 10:40	5.7	5.7	5.7	88	3.8	3	10	135	0.00	1015.073	107	0.000	1
20090401 10:45	5.7	4.4	5.7	88	3.9	6	11	112	0.00	1015.073	100	0.000	1
20090401 10:50	5.8	4.1	5.8	87	3.8	8	16	112	0.00	1015.107	92	0.000	1
20090401 10:55	5.8	5.8	5.8	87	3.8	3	10	157	0.00	1015.141	92	0.000	1
20090401 11:00	5.9	5.9	5.9	88	4.1	3	6	112	0.00	1015.141	107	0.040	1
20090401 11:05	5.9	5.9	5.9	87	3.9	3	8	135	0.00	1014.937	114	0.000	1
20090401 11:10	6.1	6.1	6.1	87	4.1	3	6	135	0.00	1015.073	126	0.000	1
20090401 11:15	6.1	4.9	6.1	87	4.1	6	10	112	0.00	1014.937	138	0.000	1
20090401 11:20	6.2	6.2	6.2	87	4.2	5	10	112	0.00	1014.937	141	0.000	1
20090401 11:25	6.2	6.2	6.2	86	4.1	2	8	112	0.00	1015.005	146	0.000	1
20090401 11:30	6.3	6.3	6.3	86	4.1	5	11	135	0.00	1015.005	152	0.000	1
20090401 11:35	6.4	6.4	6.4	87	4.4	3	8	90	0.00	1014.971	180	0.000	2
20090401 11:40	6.6	6.6	6.6	86	4.4	5	8	90	0.00	1015.005	160	0.000	1
20090401 11:45	6.6	5.4	6.6	85	4.2	6	11	67	0.00	1015.005	157	0.000	1
20090401 11:50	6.6	6.6	6.6	85	4.2	3	10	90	0.00	1015.039	176	0.000	1
20090401 11:55	6.7	6.7	6.7	85	4.3	5	10	90	0.00	1015.107	165	0.000	1
20090401 12:00	6.8	6.8	6.8	85	4.4	5	11	112	0.00	1015.107	222	0.060	2
20090401 12:05	6.9	6.9	6.9	84	4.4	5	11	112	0.00	1014.971	241	0.000	2
20090401 12:10	7.2	7.2	7.2	84	4.7	5	11	135	0.00	1015.039	257	0.000	2
20090401 12:15	7.4	7.4	7.4	83	4.7	5	10	112	0.00	1014.971	270	0.000	2
20090401 12:20	7.6	7.6	7.6	82	4.7	5	10	112	0.00	1015.039	283	0.000	2
20090401 12:25	7.7	7.7	7.7	83	5.0	5	11	112	0.00	1014.971	317	0.000	2
20090401 12:30	7.9	7.9	7.9	82	5.0	5	11	112	0.00	1015.005	340	0.000	3
20090401 12:35	8.1	8.1	8.1	81	5.0	3	8	135	0.00	1014.870	361	0.000	3
20090401 12:40	8.3	8.3	8.3	80	5.0	5	10	135	0.00	1014.802	375	0.000	3
20090401 12:45	8.4	8.4	8.4	80	5.1	3	8	90	0.00	1014.802	364	0.000	3
20090401 12:50	8.6	8.6	8.6	80	5.4	3	11	67	0.00	1014.768	321	0.000	3
20090401 12:55	8.8	8.8	8.8	80	5.5	5	8	67	0.00	1014.768	318	0.000	3
20090401 13:00	9.0	9.0	9.0	80	5.7	3	8	90	0.00	1014.734	384	0.120	3
20090401 13:05	9.3	9.3	9.3	80	6.1	3	10	135	0.00	1014.700	332	0.000	3
20090401 13:10	9.6	9.6	9.6	78	5.9	2	5	112	0.00	1014.666	319	0.000	3
20090401 13:15	9.6	9.6	9.6	78	5.9	5	10	45	0.00	1014.734	232	0.000	3
20090401 13:20	9.8	9.8	9.8	79	6.3	3	6	135	0.00	1014.700	397	0.000	4
20090401 13:25	10.2	10.2	10.2	78	6.6	5	10	135	0.00	1014.633	591	0.000	4
20090401 13:30	10.7	10.7	10.7	76	6.6	5	10	67	0.00	1014.429	478	0.000	4
20090401 13:35	11.2	11.2	11.2	75	7.0	8	18	112	0.00	1014.429	761	0.000	4
20090401 13:40	11.3	11.3	11.3	73	6.7	6	11	67	0.00	1014.260	449	0.000	4
20090401 13:45	11.2	11.2	11.2	73	6.6	6	10	45	0.00	1014.362	433	0.000	4
20090401 13:50	11.7	11.7	11.7	75	7.4	5	14	67	0.00	1014.226	880	0.000	5
20090401 13:55	11.9	11.9	11.9	73	7.3	8	13	67	0.00	1014.192	875	0.000	5
20090401 14:00	12.2	12.2	12.2	73	7.5	5	14	67	0.00	1014.226	823	0.240	4
20090401 14:05	12.6	12.6	12.6	71	7.4	6	14	135	0.00	1014.125	811	0.000	5
20090401 14:10	12.7	12.7	12.7	70	7.3	10	19	112	0.00	1014.057	741	0.000	4
20090401 14:15	12.7	12.7	12.7	72	7.8	3	10	67	0.00	1013.955	839	0.000	5
20090401 14:20	13.0	13.0	13.0	69	7.4	6	18	135	0.00	1013.922	799	0.000	4
20090401 14:25	13.2	13.2	13.2	70	7.8	8	16	90	0.00	1013.786	815	0.000	4
20090401 14:30	13.1	13.1	13.1	71	7.9	10	19	67	0.00	1013.820	320	0.000	4
20090401 14:35	13.0	13.0	13.0	68	7.2	6	19	112	0.00	1013.888	571	0.000	4
20090401 14:40	13.1	13.1	13.1	70	7.7	5	10	90	0.00	1013.922	813	0.000	4
20090401 14:45	13.3	13.3	13.3	69	7.7	10	18	67	0.00	1013.820	791	0.000	4
20090401 14:50	13.3	13.3	13.3	70	7.9	6	14	67	0.00	1013.820	620	0.000	4
20090401 14:55	13.4	13.4	13.4	68	7.6	10	18	67	0.00	1013.820	634	0.000	4
20090401 15:00	13.4	13.4	13.4	69	7.9	6	14	67	0.00	1013.786	722	0.280	4
20090401 15:05	13.5	13.5	13.5	68	7.7	13	19	67	0.00	1013.820	690	0.000	3
20090401 15:10	13.4	13.4	13.4	68	7.7	10	18	67	0.00	1013.820	691	0.000	3
20090401 15:15	13.3	13.3	13.3	68	7.5	6	14	67	0.00	1013.820	439	0.000	3
20090401 15:20	13.6	13.6	13.6	70	8.2	8	18	67	0.00	1013.820	670	0.000	3
20090401 15:25	13.8	13.8	13.8	68	8.0	5	16	112	0.00	1013.752	227	0.000	2
20090401 15:30	13.8	13.8	13.8	67	7.8	10	16	67	0.00	1013.752	474	0.000	3
20090401 15:35	13.7	13.7	13.7	70	8.3	8	18	67	0.00	1013.718	402	0.000	3
20090401 15:40	13.8	13.8	13.8	69	8.2	6	11	67	0.00	1013.651	542	0.000	3
20090401 15:45	13.9	13.9	13.9	69	8.3	6	14	67	0.00	1013.515	572	0.000	3
20090401 15:50	14.2	14.2	14.2	68	8.3	6	11	45	0.00	1013.617	531	0.000	3
20090401 15:55	14.4	14.4	14.4	67	8.3	5	11	90	0.00	1013.414	558	0.000	3
20090401 16:00	14.6	14.6	14.6	68	8.7	6	14	67	0.00	1013.346	509	0.220	2
20090401 16:05	14.5	14.5	14.5	67	8.4	8	14	67	0.00	1013.380	377	0.000	2
20090401 16:10	14.7	14.7	14.7	67	8.7	6	14	67	0.00	1013.312	441	0.000	2
20090401 16:15	14.6	14.6	14.6	67	8.5	8	16	67	0.00	1013.312	367	0.000	2
20090401 16:20	14.6	14.6	14.6	66	8.3	8	14	67	0.00	1013.244	339	0.000	2
20090401 16:25	14.7	14.7	14.7	68	8.8	6	23	67	0.00	1013.210	348	0.000	2
20090401 16:30	14.6	14.6	14.6	66	8.3	8	23	90	0.00	1013.312	358	0.000	2
20090401 16:35	14.7	14.7	14.7	67	8.7	5	11	67	0.00	1013.244	305	0.000	2
20090401 16:40	15.0	15.0	15.0	66	8.7	8	16	112	0.00	1013.312	246	0.000	2
20090401 16:45	15.0	15.0	15.0	64	8.2	8	18	112	0.00	1013.312	261	0.000	1
20090401 16:50	15.1	15.1	15.1	65	8.5	5	11	112	0.00	1013.244	409	0.000	2
20090401 16:55	15.2	15.2	15.2	66	8.9	6	16	67	0.00	1013.312	305	0.000	1
20090401 17:00	15.1	15.1	15.1	65	8.6	8	16	45	0.00	1013.346	282	0.160	1
20090401 17:05	15.0	15.0	15.0	65	8.5	10	19	67	0.00	1013.414	208	0.000	1
20090401 17:10	15.0	15.0	15.0	66	8.7	5	14	67	0.00	1013.312	210	0.000	1
20090401 17:15	15.0	15.0	15.0	67	8.9	5	14	45	0.00	1013.244	237	0.000	1
20090401 17:20	15.0	15.0	15.0	67	8.9	6	14	67	0.00	1013.244	143	0.000	1
20090401 17:25	14.9	14.9	14.9	67	8.8	10	16	67	0.00	1013.210	134	0.000	1
20090401 17:30	14.9	14.9	14.9	67	8.9	8	14	67	0.00	1013.177	196	0.000	1
20090401 17:35	15.0	15.0	15.0	67	8.9	6	13	67	0.00	1013.177	206	0.000	1
20090401 17:40	15.0	15.0	15.0	67	8.9	6	14	67	0.00	1013.177	185	0.000	1
20090401 17:45	15.0	15.0	15.0	67	8.9	6	18	67	0.00	1013.177	139	0.000	1
20090401 17:50	14.9	14.9	14.9	67	8.9	8	18	67	0.00	1013.143	191	0.000	1
20090401 17:55	15.0	15.0	15.0	68	9.1	6	14	67	0.00	1013.109	196	0.000	1
20090401 18:00	15.0	15.0	15.0	68	9.1	8	16	67	0.00	1013.177	196	0.100	0
20090401 18:05	15.0	15.0	15.0	68	9.1	6	11	45	0.00	1013.177	153	0.000	0
20090401 18:10	14.9	14.9	14.9	68	9.1	5	10	67	0.00	1013.177	154	0.000	0
20090401 18:15	15.0	15.0	15.0	67	8.9	6	11	67	0.00	1013.177	151	0.000	0
20090401 18:20	15.0	15.0	15.0	69	9.4	6	13	67	0.00	1013.210	159	0.000	0
20090401 18:25	14.9	14.9	14.9	67	8.8	6	14	45	0.00	1013.244	137	0.000	0
20090401 18:30	14.8	14.8	14.8	67	8.7	6	16	67	0.00	1013.278	87	0.000	0
20090401 18:35	14.7	14.7	14.7	69	9.0	6	11	67	0.00	1013.312	85	0.000	0
20090401 18:40	14.6	14.6	14.6	69	8.9	6	11	45	0.00	1013.346	65	0.000	0
20090401 18:45	14.3	14.3	14.3	70	8.9	6	10	67	0.00	1013.312	62	0.000	0
20090401 18:50	14.2	14.2	14.2	71	9.0	6	10	67	0.00	1013.380	63	0.000	0
20090401 18:55	14.1	14.1	14.1	72	9.1	5	8	67	0.00	1013.549	53	0.000	0
20090401 19:00	14.1	14.1	14.1	72	9.1	6	16	67	0.00	1013.515	39	0.060	0
20090401 19:05	13.9	13.9	13.9	72	8.9	10	19	45	0.00	1013.515	30	0.000	0
20090401 19:10	13.7	13.7	13.7	72	8.7	8	13	67	0.00	1013.583	25	0.000	0
20090401 19:15	13.4	13.4	13.4	73	8.6	8	16	45	0.00	1013.583	22	0.000	0
20090401 19:20	13.2	13.2	13.2	73	8.5	8	11	45	0.00	1013.651	18	0.000	0
20090401 19:25	13.0	13.0	13.0	74	8.5	8	16	45	0.00	1013.684	15	0.000	0
20090401 19:30	12.9	12.9	12.9	74	8.4	8	14	45	0.00	1013.820	10	0.000	0
20090401 19:35	12.7	12.7	12.7	75	8.3	8	13	67	0.00	1013.888	7	0.000	0
20090401 19:40	12.4	12.4	12.4	76	8.3	8	14	67	0.00	1013.922	5	0.000	0
20090401 19:45	12.2	12.2	12.2	76	8.1	8	11	67	0.00	1013.989	1	0.000	0
20090401 19:50	12.0	12.0	12.0	77	8.1	8	11	67	0.00	1014.057	0	0.000	0
20090401 19:55	11.8	11.8	11.8	77	7.9	8	13	67	0.00	1014.226	0	0.000	0
20090401 20:00	11.7	11.7	11.7	78	8.0	8	14	67	0.00	1014.396	0	0.020	0
20090401 20:05	11.7	11.7	11.7	78	8.0	6	11	67	0.00	1014.260	0	0.000	0
20090401 20:10	11.6	11.6	11.6	78	7.9	6	10	67	0.00	1014.294	0	0.000	0
20090401 20:15	11.6	11.6	11.6	78	7.9	8	11	67	0.00	1014.294	0	0.000	0
20090401 20:20	11.6	11.6	11.6	78	7.9	8	14	67	0.00	1014.396	0	0.000	0
20090401 20:25	11.6	11.6	11.6	78	7.9	8	14	67	0.00	1014.497	0	0.000	0
20090401 20:30	11.6	11.6	11.6	78	7.9	6	11	67	0.00	1014.497	0	0.000	0
20090401 20:35	11.6	11.6	11.6	78	7.9	8	16	45	0.00	1014.633	0	0.000	0
20090401 20:40	11.6	11.6	11.6	78	7.9	8	14	67	0.00	1014.666	0	0.000	0
20090401 20:45	11.5	11.5	11.5	78	7.8	8	14	67	0.00	1014.734	0	0.000	0
20090401 20:50	11.4	11.4	11.4	78	7.7	8	14	67	0.00	1014.768	0	0.000	0
20090401 20:55	11.3	11.3	11.3	78	7.6	8	14	67	0.00	1015.005	0	0.000	0
20090401 21:00	11.3	11.3	11.3	78	7.6	8	16	67	0.00	1015.107	0	0.020	0
20090401 21:05	11.2	11.2	11.2	78	7.5	6	16	67	0.00	1014.971	0	0.000	0
20090401 21:10	11.2	11.2	11.2	78	7.5	8	19	67	0.00	1015.005	0	0.000	0
20090401 21:15	11.1	11.1	11.1	78	7.4	6	13	67	0.00	1015.107	0	0.000	0
20090401 21:20	10.9	10.9	10.9	78	7.3	8	16	67	0.00	1015.107	0	0.000	0
20090401 21:25	10.8	10.8	10.8	79	7.3	8	13	45	0.00	1015.039	0	0.000	0
20090401 21:30	10.7	10.7	10.7	79	7.2	8	16	67	0.00	1015.208	0	0.000	0
20090401 21:35	10.6	10.6	10.6	79	7.1	8	16	67	0.00	1015.242	0	0.000	0
20090401 21:40	10.6	10.6	10.6	79	7.1	6	14	90	0.00	1015.208	0	0.000	0
20090401 21:45	10.4	10.4	10.4	79	7.0	8	18	67	0.00	1015.208	0	0.000	0
20090401 21:50	10.3	10.3	10.3	79	6.8	10	16	67	0.00	1015.208	0	0.000	0
20090401 21:55	10.2	10.2	10.2	80	6.9	6	16	45	0.00	1015.141	0	0.000	0
20090401 22:00	9.8	8.8	9.8	80	6.5	8	16	67	0.00	1015.242	0	0.020	0
20090401 22:05	9.6	8.6	9.6	81	6.5	8	16	67	0.00	1015.208	0	0.000	0
20090401 22:10	9.4	8.4	9.4	81	6.3	8	13	67	0.00	1015.208	0	0.000	0
20090401 22:15	9.3	8.2	9.3	82	6.4	8	16	67	0.00	1015.174	0	0.000	0
20090401 22:20	9.2	8.0	9.2	82	6.3	8	11	67	0.00	1015.174	0	0.000	0
20090401 22:25	9.1	8.3	9.1	83	6.3	6	11	67	0.00	1015.378	0	0.000	0
20090401 22:30	9.0	8.2	9.0	83	6.3	6	14	67	0.00	1015.378	0	0.000	0
20090401 22:35	8.9	8.1	8.9	83	6.2	6	11	67	0.00	1015.513	0	0.000	0
20090401 22:40	8.8	8.8	8.8	83	6.1	5	10	67	0.00	1015.581	0	0.000	0
20090401 22:45	8.7	8.7	8.7	84	6.1	5	13	67	0.00	1015.547	0	0.000	0
20090401 22:50	8.6	8.6	8.6	84	6.0	5	13	67	0.00	1015.581	0	0.000	0
20090401 22:55	8.5	8.5	8.5	84	6.0	3	8	90	0.00	1015.581	0	0.000	0
20090401 23:00	8.4	8.4	8.4	84	5.9	3	11	67	0.00	1015.581	0	0.020	0
20090401 23:05	8.4	8.4	8.4	84	5.8	5	10	67	0.00	1015.615	0	0.000	0
20090401 23:10	8.3	8.3	8.3	85	5.9	5	10	67	0.00	1015.615	0	0.000	0
20090401 23:15	8.2	8.2	8.2	85	5.8	5	8	67	0.00	1015.682	0	0.000	0
20090401 23:20	8.1	7.2	8.1	85	5.7	6	11	67	0.00	1015.547	0	0.000	0
20090401 23:25	8.1	6.7	8.1	85	5.7	8	14	67	0.00	1015.547	0	0.000	0
20090401 23:30	7.9	7.0	7.9	86	5.7	6	16	67	0.00	1015.547	0	0.000	0
20090401 23:35	7.8	6.9	7.8	86	5.6	6	11	67	0.00	1015.547	0	0.000	0
20090401 23:40	7.8	6.9	7.8	86	5.6	6	11	67	0.00	1015.581	0	0.000	0
20090401 23:45	7.8	6.4	7.8	87	5.8	8	13	67	0.00	1015.547	0	0.000	0
20090401 23:50	7.8	6.9	7.8	87	5.8	6	11	67	0.00	1015.547	0	0.000	0
20090401 23:55	7.8	6.5	7.8	87	5.8	8	14	67	0.00	1015.513	0	0.000	0
20090401 24:00	7.8	6.5	7.8	87	5.8	8	16	67	0.00	1015.547	0	0.020	0



Please note the license to use and transfer of this data:
http://creativecommons.org/licenses/by-nc-sa/3.0/deed.en

Bitte beachten sie die Lizenz zur Verwertung und Weitergabe der Daten:
http://creativecommons.org/licenses/by-nc-sa/3.0/deed.de

zurück zur Übersicht der Archivdaten (Monats und Tagesdaten)

Cookies helfen bei der Bereitstellung von Inhalten. Durch die Nutzung dieser Seiten erklärst du dich damit einverstanden, dass Cookies auf deinem Rechner gespeichert werden. Weitere Information